createdAt,value
2023-01-19T00:00:50.071Z,2.47
2023-01-19T00:03:17.930Z,1.49
2023-01-19T00:05:45.070Z,2.04
2023-01-19T00:08:14.929Z,2.33
2023-01-19T00:10:47.511Z,2.26
2023-01-19T00:13:15.473Z,1.98
2023-01-19T00:15:43.237Z,1.08
2023-01-19T00:18:11.141Z,2.25
2023-01-19T00:20:39.219Z,2.27
2023-01-19T00:23:07.877Z,2.24
2023-01-19T00:25:34.774Z,1.82
2023-01-19T00:28:01.885Z,2.20
2023-01-19T00:30:29.294Z,1.31
2023-01-19T00:32:56.282Z,2.41
2023-01-19T00:35:22.838Z,2.30
2023-01-19T00:37:49.407Z,2.28
2023-01-19T00:40:16.442Z,2.06
2023-01-19T00:42:44.538Z,1.42
2023-01-19T00:45:13.551Z,2.33
2023-01-19T00:47:40.443Z,2.37
2023-01-19T00:50:11.843Z,2.43
2023-01-19T00:52:40.160Z,2.51
2023-01-19T00:55:08.190Z,0.90
2023-01-19T00:57:34.940Z,1.64
2023-01-19T01:00:01.783Z,2.39
2023-01-19T01:02:28.659Z,2.25
2023-01-19T01:04:56.736Z,1.87
2023-01-19T01:07:24.597Z,1.41
2023-01-19T01:09:51.531Z,1.08
2023-01-19T01:12:18.219Z,1.37
2023-01-19T01:14:44.982Z,1.67
2023-01-19T01:17:14.244Z,1.83
2023-01-19T01:19:41.591Z,1.65
2023-01-19T01:22:09.800Z,1.57
2023-01-19T01:24:36.429Z,1.92
2023-01-19T01:27:03.083Z,0.22
2023-01-19T01:29:29.848Z,2.00
2023-01-19T01:31:56.515Z,1.93
2023-01-19T01:34:23.111Z,1.62
2023-01-19T01:36:49.761Z,1.43
2023-01-19T01:39:16.302Z,1.71
2023-01-19T01:41:42.926Z,1.84
2023-01-19T01:44:49.648Z,2.01
2023-01-19T01:47:54.676Z,2.06
2023-01-19T01:50:24.131Z,1.23
2023-01-19T01:53:12.367Z,1.13
2023-01-19T01:55:49.038Z,2.17
2023-01-19T01:58:16.605Z,1.99
2023-01-19T02:01:15.230Z,2.16
2023-01-19T02:03:42.088Z,2.07
2023-01-19T02:06:10.165Z,2.11
2023-01-19T02:09:07.662Z,2.14
2023-01-19T02:11:54.407Z,2.15
2023-01-19T02:14:21.571Z,2.18
2023-01-19T02:16:48.353Z,2.16
2023-01-19T02:19:25.347Z,2.26
2023-01-19T02:21:58.552Z,2.21
2023-01-19T02:24:25.748Z,2.33
2023-01-19T02:26:52.515Z,2.08
2023-01-19T02:29:22.646Z,2.10
2023-01-19T02:31:49.382Z,2.29
2023-01-19T02:34:18.842Z,1.33
2023-01-19T02:36:56.483Z,2.23
2023-01-19T02:39:47.751Z,1.25
2023-01-19T02:42:37.783Z,2.20
2023-01-19T02:45:06.861Z,1.76
2023-01-19T02:47:43.696Z,2.29
2023-01-19T02:50:45.908Z,2.29
2023-01-19T02:53:56.839Z,2.26
2023-01-19T02:56:44.474Z,2.22
2023-01-19T02:59:16.782Z,2.25
2023-01-19T03:01:58.413Z,2.30
2023-01-19T03:04:43.855Z,2.22
2023-01-19T03:07:21.111Z,1.89
2023-01-19T03:09:47.663Z,1.50
2023-01-19T03:12:52.659Z,1.73
2023-01-19T03:15:31.937Z,1.99
2023-01-19T03:18:01.571Z,2.08
2023-01-19T03:20:29.036Z,2.06
2023-01-19T03:23:03.841Z,2.08
2023-01-19T03:25:35.198Z,0.63
2023-01-19T03:28:03.550Z,2.27
2023-01-19T03:30:37.289Z,2.35
2023-01-19T03:33:09.290Z,2.43
2023-01-19T03:35:41.863Z,2.44
2023-01-19T03:38:14.929Z,1.00
2023-01-19T03:40:41.887Z,1.62
2023-01-19T03:43:09.628Z,2.27
2023-01-19T03:45:39.084Z,1.59
2023-01-19T03:48:06.570Z,2.15
2023-01-19T03:50:33.372Z,2.16
2023-01-19T03:53:11.986Z,2.35
2023-01-19T03:55:41.903Z,0.35
2023-01-19T03:58:08.724Z,2.34
2023-01-19T04:00:36.554Z,2.14
2023-01-19T04:03:07.156Z,2.32
2023-01-19T04:05:33.860Z,2.26
2023-01-19T04:08:00.702Z,1.28
2023-01-19T04:10:27.420Z,2.34
2023-01-19T04:13:01.741Z,2.39
2023-01-19T04:15:29.421Z,2.37
2023-01-19T04:18:00.624Z,1.99
2023-01-19T04:20:28.244Z,2.04
2023-01-19T04:22:58.685Z,1.67
2023-01-19T04:25:25.411Z,1.34
2023-01-19T04:27:53.241Z,1.30
2023-01-19T04:30:20.001Z,1.52
2023-01-19T04:32:46.798Z,1.76
2023-01-19T04:35:13.382Z,1.65
2023-01-19T04:37:40.176Z,1.54
2023-01-19T04:40:07.660Z,1.77
2023-01-19T04:42:34.258Z,1.88
2023-01-19T04:45:00.849Z,1.63
2023-01-19T04:47:27.438Z,1.41
2023-01-19T04:49:54.083Z,1.38
2023-01-19T04:52:20.610Z,1.27
2023-01-19T04:54:47.677Z,1.33
2023-01-19T04:57:14.236Z,0.23
2023-01-19T04:59:40.902Z,1.65
2023-01-19T05:02:07.568Z,1.78
2023-01-19T05:04:34.231Z,1.79
2023-01-19T05:07:00.827Z,1.77
2023-01-19T05:09:27.411Z,1.86
2023-01-19T05:11:54.197Z,1.43
2023-01-19T05:14:21.109Z,1.92
2023-01-19T05:16:47.662Z,1.98
2023-01-19T05:19:14.298Z,1.99
2023-01-19T05:21:40.834Z,1.95
2023-01-19T05:24:07.869Z,1.06
2023-01-19T05:26:34.503Z,1.93
2023-01-19T05:29:01.193Z,1.92
2023-01-19T05:31:27.832Z,1.94
2023-01-19T05:33:54.490Z,1.92
2023-01-19T05:36:21.047Z,1.97
2023-01-19T05:38:47.725Z,1.97
2023-01-19T05:41:14.258Z,1.95
2023-01-19T05:43:40.868Z,2.00
2023-01-19T05:46:07.397Z,1.96
2023-01-19T05:48:33.989Z,1.99
2023-01-19T05:51:01.549Z,1.98
2023-01-19T05:53:28.847Z,1.93
2023-01-19T05:56:00.340Z,2.02
2023-01-19T05:58:26.905Z,2.03
2023-01-19T06:00:53.512Z,2.04
2023-01-19T06:03:20.208Z,2.07
2023-01-19T06:05:46.889Z,2.01
2023-01-19T06:08:14.253Z,1.95
2023-01-19T06:10:40.969Z,1.83
2023-01-19T06:13:09.730Z,1.81
2023-01-19T06:15:37.462Z,2.03
2023-01-19T06:18:04.382Z,2.09
2023-01-19T06:20:31.065Z,1.87
2023-01-19T06:22:58.043Z,0.84
2023-01-19T06:25:25.979Z,1.97
2023-01-19T06:27:52.579Z,1.94
2023-01-19T06:30:19.409Z,2.11
2023-01-19T06:32:46.062Z,2.14
2023-01-19T06:35:12.735Z,2.14
2023-01-19T06:37:39.768Z,2.09
2023-01-19T06:40:07.567Z,2.12
2023-01-19T06:42:34.484Z,1.42
2023-01-19T06:45:01.130Z,1.89
2023-01-19T06:47:27.771Z,2.00
2023-01-19T06:49:54.318Z,2.04
2023-01-19T06:52:21.111Z,1.26
2023-01-19T06:54:47.947Z,1.91
2023-01-19T06:57:16.483Z,1.73
2023-01-19T06:59:43.995Z,1.75
2023-01-19T07:02:26.624Z,1.79
2023-01-19T07:04:56.072Z,1.80
2023-01-19T07:07:22.624Z,1.01
2023-01-19T07:09:49.215Z,1.68
2023-01-19T07:12:20.344Z,1.70
2023-01-19T07:14:46.874Z,1.32
2023-01-19T07:17:13.839Z,1.57
2023-01-19T07:19:40.436Z,1.66
2023-01-19T07:22:07.103Z,1.60
2023-01-19T07:24:34.919Z,1.59
2023-01-19T07:27:01.604Z,1.60
2023-01-19T07:29:28.219Z,1.67
2023-01-19T07:31:54.964Z,1.05
2023-01-19T07:34:21.896Z,0.14
2023-01-19T07:36:48.659Z,1.10
2023-01-19T07:39:15.725Z,0.93
2023-01-19T07:41:42.511Z,1.31
2023-01-19T07:44:09.621Z,1.24
2023-01-19T07:46:36.193Z,1.60
2023-01-19T07:49:02.742Z,1.67
2023-01-19T07:51:29.351Z,1.74
2023-01-19T07:53:55.865Z,1.05
2023-01-19T07:56:24.236Z,1.77
2023-01-19T07:58:52.379Z,1.80
2023-01-19T08:01:19.205Z,1.67
2023-01-19T08:03:47.983Z,1.86
2023-01-19T08:06:24.430Z,1.81
2023-01-19T08:08:51.187Z,1.60
2023-01-19T08:11:17.786Z,1.87
2023-01-19T08:13:44.403Z,1.73
2023-01-19T08:16:10.993Z,1.34
2023-01-19T08:18:37.643Z,1.59
2023-01-19T08:21:04.810Z,1.71
2023-01-19T08:23:31.752Z,1.25
2023-01-19T08:25:58.345Z,1.69
2023-01-19T08:28:25.904Z,1.55
2023-01-19T08:30:55.472Z,0.68
2023-01-19T08:33:24.255Z,1.61
2023-01-19T08:35:54.342Z,0.35
2023-01-19T08:38:21.077Z,1.12
2023-01-19T08:40:48.689Z,1.59
2023-01-19T08:43:17.055Z,0.99
2023-01-19T08:45:49.436Z,1.20
2023-01-19T08:48:19.580Z,1.38
2023-01-19T08:50:47.380Z,1.43
2023-01-19T08:53:14.622Z,1.46
2023-01-19T08:55:41.748Z,1.52
2023-01-19T08:58:11.466Z,1.44
2023-01-19T09:00:39.648Z,1.47
2023-01-19T09:03:08.823Z,1.51
2023-01-19T09:05:38.725Z,0.70
2023-01-19T09:08:09.156Z,1.39
2023-01-19T09:10:37.846Z,1.08
2023-01-19T09:13:10.916Z,0.79
2023-01-19T09:15:38.462Z,0.80
2023-01-19T09:18:07.989Z,1.18
2023-01-19T09:20:36.185Z,1.01
2023-01-19T09:23:02.917Z,1.13
2023-01-19T09:25:29.809Z,1.14
2023-01-19T09:27:56.468Z,1.24
2023-01-19T09:30:23.243Z,1.23
2023-01-19T09:32:49.841Z,1.29
2023-01-19T09:35:16.578Z,1.05
2023-01-19T09:37:47.408Z,1.39
2023-01-19T09:40:17.129Z,0.50
2023-01-19T09:42:48.485Z,0.31
2023-01-19T09:45:17.744Z,0.41
2023-01-19T09:47:46.904Z,0.93
2023-01-19T09:50:26.479Z,0.99
2023-01-19T09:53:01.383Z,0.69
2023-01-19T09:55:29.439Z,1.44
2023-01-19T09:57:56.177Z,1.05
2023-01-19T10:00:24.319Z,-1.34
2023-01-19T10:03:02.769Z,1.44
2023-01-19T10:05:51.813Z,1.49
2023-01-19T10:08:43.983Z,1.17
2023-01-19T10:11:51.638Z,1.42
2023-01-19T10:14:28.177Z,1.26
2023-01-19T10:17:18.998Z,1.39
2023-01-19T10:19:49.812Z,1.44
2023-01-19T10:22:23.052Z,1.12
2023-01-19T10:24:57.006Z,1.56
2023-01-19T10:27:28.448Z,-0.04
2023-01-19T10:29:56.655Z,1.27
2023-01-19T10:32:26.548Z,-1.65
2023-01-19T10:34:54.855Z,0.97
2023-01-19T10:37:24.378Z,0.83
2023-01-19T10:40:09.043Z,0.90
2023-01-19T10:42:37.175Z,0.83
2023-01-19T10:45:15.218Z,0.94
2023-01-19T10:47:43.956Z,0.20
2023-01-19T10:50:30.641Z,0.97
2023-01-19T10:53:06.278Z,1.10
2023-01-19T10:55:38.213Z,1.22
2023-01-19T10:58:06.929Z,1.09
2023-01-19T11:00:43.362Z,1.10
2023-01-19T11:03:23.944Z,1.19
2023-01-19T11:05:51.162Z,1.09
2023-01-19T11:08:29.624Z,0.95
2023-01-19T11:11:04.402Z,1.05
2023-01-19T11:13:32.169Z,1.06
2023-01-19T11:16:05.293Z,0.21
2023-01-19T11:18:35.528Z,1.12
2023-01-19T11:21:09.284Z,0.35
2023-01-19T11:23:43.011Z,0.94
2023-01-19T11:26:18.057Z,0.97
2023-01-19T11:28:49.348Z,0.90
2023-01-19T11:31:16.030Z,0.89
2023-01-19T11:33:45.394Z,0.95
2023-01-19T11:36:18.818Z,0.81
2023-01-19T11:38:48.914Z,0.80
2023-01-19T11:41:21.675Z,0.95
2023-01-19T11:43:51.814Z,0.89
2023-01-19T11:46:19.221Z,1.22
2023-01-19T11:49:02.002Z,1.25
2023-01-19T11:51:37.121Z,0.52
2023-01-19T11:54:19.179Z,1.27
2023-01-19T11:56:48.394Z,-0.16
2023-01-19T11:59:15.091Z,1.27
2023-01-19T12:01:49.571Z,0.36
2023-01-19T12:04:30.640Z,1.23
2023-01-19T12:07:03.138Z,1.10
2023-01-19T12:09:36.085Z,1.01
2023-01-19T12:12:06.873Z,0.05
2023-01-19T12:15:04.360Z,1.25
2023-01-19T12:17:37.622Z,1.26
2023-01-19T12:20:28.517Z,1.33
2023-01-19T12:23:07.228Z,1.42
2023-01-19T12:26:04.758Z,1.47
2023-01-19T12:28:33.914Z,1.25
2023-01-19T12:31:01.648Z,1.37
2023-01-19T12:33:29.029Z,1.47
2023-01-19T12:36:04.216Z,1.29
2023-01-19T12:38:40.587Z,0.44
2023-01-19T12:41:27.382Z,1.46
2023-01-19T12:44:12.372Z,1.48
2023-01-19T12:46:40.593Z,1.41
2023-01-19T12:49:15.118Z,1.44
2023-01-19T12:51:41.979Z,1.06
2023-01-19T12:54:21.327Z,1.51
2023-01-19T12:56:48.134Z,1.54
2023-01-19T12:59:25.565Z,1.52
2023-01-19T13:02:20.282Z,1.43
2023-01-19T13:05:24.694Z,1.42
2023-01-19T13:08:06.704Z,1.44
2023-01-19T13:11:10.579Z,1.40
2023-01-19T13:13:39.925Z,1.36
2023-01-19T13:16:18.671Z,1.33
2023-01-19T13:19:06.210Z,1.30
2023-01-19T13:21:44.708Z,1.42
2023-01-19T13:24:16.971Z,1.52
2023-01-19T13:26:49.623Z,1.53
2023-01-19T13:29:33.833Z,1.54
2023-01-19T13:32:06.787Z,1.54
2023-01-19T13:34:42.425Z,1.60
2023-01-19T13:37:18.178Z,1.59
2023-01-19T13:39:48.929Z,1.27
2023-01-19T13:42:35.104Z,1.21
2023-01-19T13:45:26.281Z,1.49
2023-01-19T13:47:55.351Z,1.05
2023-01-19T13:50:28.445Z,1.57
2023-01-19T13:52:56.612Z,1.55
2023-01-19T13:55:24.078Z,0.50
2023-01-19T13:57:51.548Z,1.50
2023-01-19T14:00:29.941Z,1.49
2023-01-19T14:03:00.660Z,1.48
2023-01-19T14:05:37.636Z,1.44
2023-01-19T14:08:13.569Z,1.48
2023-01-19T14:10:47.181Z,1.49
2023-01-19T14:13:26.300Z,1.26
2023-01-19T14:15:56.904Z,1.04
2023-01-19T14:18:30.076Z,1.17
2023-01-19T14:21:11.752Z,1.25
2023-01-19T14:23:43.312Z,1.39
2023-01-19T14:26:37.866Z,1.54
2023-01-19T14:29:33.146Z,1.52
2023-01-19T14:32:19.730Z,1.59
2023-01-19T14:35:04.282Z,1.58
2023-01-19T14:37:35.958Z,1.52
2023-01-19T14:40:08.921Z,1.27
2023-01-19T14:42:39.217Z,0.31
2023-01-19T14:45:14.861Z,1.27
2023-01-19T14:47:44.409Z,1.32
2023-01-19T14:50:32.270Z,1.32
2023-01-19T14:53:01.871Z,1.31
2023-01-19T14:55:56.720Z,1.43
2023-01-19T14:58:26.305Z,1.51
2023-01-19T15:00:56.269Z,-1.19
2023-01-19T15:03:34.881Z,0.47
2023-01-19T15:06:14.400Z,1.55
2023-01-19T15:08:41.329Z,0.85
2023-01-19T15:11:18.067Z,1.00
2023-01-19T15:13:45.158Z,1.48
2023-01-19T15:16:11.865Z,1.45
2023-01-19T15:18:38.889Z,0.07
2023-01-19T15:21:05.718Z,1.39
2023-01-19T15:23:32.795Z,1.36
2023-01-19T15:26:04.788Z,0.90
2023-01-19T15:28:31.836Z,1.46
2023-01-19T15:30:59.779Z,1.54
2023-01-19T15:33:30.499Z,1.48
2023-01-19T15:35:57.434Z,1.37
2023-01-19T15:38:24.106Z,1.46
2023-01-19T15:40:51.697Z,1.46
2023-01-19T15:43:18.857Z,1.44
2023-01-19T15:45:50.926Z,1.32
2023-01-19T15:48:19.902Z,1.24
2023-01-19T15:50:47.742Z,1.35
2023-01-19T15:53:17.102Z,1.18
2023-01-19T15:55:44.570Z,1.43
2023-01-19T15:58:14.021Z,1.33
2023-01-19T16:00:41.631Z,0.89
2023-01-19T16:03:08.274Z,0.96
2023-01-19T16:05:42.890Z,1.05
2023-01-19T16:08:13.367Z,0.00
2023-01-19T16:10:43.180Z,1.05
2023-01-19T16:13:11.799Z,0.82
2023-01-19T16:15:42.204Z,0.82
2023-01-19T16:18:08.948Z,0.62
2023-01-19T16:20:35.744Z,1.03
2023-01-19T16:23:14.436Z,-1.63
2023-01-19T16:25:41.906Z,0.14
2023-01-19T16:28:09.025Z,1.07
2023-01-19T16:30:35.858Z,1.15
2023-01-19T16:33:02.456Z,1.10
2023-01-19T16:35:29.055Z,1.18
2023-01-19T16:37:55.780Z,0.93
2023-01-19T16:40:22.373Z,1.24
2023-01-19T16:42:48.971Z,1.25
2023-01-19T16:45:15.639Z,1.32
2023-01-19T16:47:43.128Z,1.35
2023-01-19T16:50:13.114Z,0.30
2023-01-19T16:52:39.905Z,1.05
2023-01-19T16:55:09.393Z,0.62
2023-01-19T16:57:36.951Z,0.96
2023-01-19T17:00:04.243Z,1.01
2023-01-19T17:02:30.994Z,1.12
2023-01-19T17:05:00.168Z,1.18
2023-01-19T17:07:29.864Z,1.14
2023-01-19T17:09:56.447Z,1.14
2023-01-19T17:12:23.143Z,1.18
2023-01-19T17:14:49.785Z,0.60
2023-01-19T17:17:16.569Z,1.25
2023-01-19T17:19:45.044Z,1.15
2023-01-19T17:22:12.839Z,1.26
2023-01-19T17:24:42.341Z,1.24
2023-01-19T17:27:10.346Z,1.20
2023-01-19T17:29:36.936Z,1.23
2023-01-19T17:32:04.063Z,1.26
2023-01-19T17:34:31.028Z,1.34
2023-01-19T17:37:02.903Z,0.31
2023-01-19T17:39:30.136Z,1.18
2023-01-19T17:41:59.237Z,1.07
2023-01-19T17:44:25.949Z,1.30
2023-01-19T17:46:52.675Z,0.57
2023-01-19T17:49:19.386Z,1.38
2023-01-19T17:51:46.242Z,0.46
2023-01-19T17:54:14.023Z,1.33
2023-01-19T17:56:41.329Z,1.36
2023-01-19T17:59:08.517Z,1.28
2023-01-19T18:01:40.444Z,1.12
2023-01-19T18:04:08.994Z,1.33
2023-01-19T18:06:41.499Z,1.24
2023-01-19T18:09:15.869Z,1.08
2023-01-19T18:11:44.807Z,1.46
2023-01-19T18:14:11.439Z,1.35
2023-01-19T18:16:38.045Z,1.42
2023-01-19T18:19:04.854Z,1.31
2023-01-19T18:21:31.386Z,1.42
2023-01-19T18:24:01.184Z,1.43
2023-01-19T18:26:28.651Z,1.51
2023-01-19T18:28:57.107Z,0.99
2023-01-19T18:31:24.350Z,1.62
2023-01-19T18:33:50.908Z,1.53
2023-01-19T18:36:17.804Z,1.02
2023-01-19T18:38:45.312Z,1.47
2023-01-19T18:41:14.651Z,1.45
2023-01-19T18:43:41.774Z,-1.76
2023-01-19T18:46:19.365Z,0.96
2023-01-19T18:49:12.563Z,1.14
2023-01-19T18:51:41.513Z,1.24
2023-01-19T18:54:24.412Z,0.78
2023-01-19T18:56:59.834Z,1.51
2023-01-19T18:59:39.559Z,1.43
2023-01-19T19:02:14.234Z,1.37
2023-01-19T19:04:50.677Z,1.32
2023-01-19T19:07:18.642Z,1.11
2023-01-19T19:09:45.256Z,1.22
2023-01-19T19:12:11.853Z,1.37
2023-01-19T19:14:38.576Z,1.38
2023-01-19T19:17:05.262Z,1.15
2023-01-19T19:19:31.783Z,1.28
2023-01-19T19:21:58.396Z,0.27
2023-01-19T19:24:25.303Z,1.35
2023-01-19T19:26:51.841Z,1.36
2023-01-19T19:29:18.453Z,1.37
2023-01-19T19:31:46.157Z,1.33
2023-01-19T19:34:12.934Z,1.22
2023-01-19T19:36:40.304Z,1.31
2023-01-19T19:39:07.045Z,1.37
2023-01-19T19:41:33.718Z,0.27
2023-01-19T19:44:00.332Z,1.42
2023-01-19T19:46:28.752Z,0.64
2023-01-19T19:48:55.463Z,1.42
2023-01-19T19:51:25.665Z,1.39
2023-01-19T19:53:54.591Z,0.83
2023-01-19T19:56:23.173Z,0.91
2023-01-19T19:58:51.602Z,1.49
2023-01-19T20:01:27.594Z,1.40
2023-01-19T20:03:56.769Z,1.40
2023-01-19T20:06:26.147Z,1.49
2023-01-19T20:08:55.620Z,1.49
2023-01-19T20:11:25.457Z,1.39
2023-01-19T20:13:52.302Z,1.64
2023-01-19T20:16:21.670Z,1.65
2023-01-19T20:18:54.255Z,1.34
2023-01-19T20:21:29.423Z,1.13
2023-01-19T20:24:00.150Z,0.88
2023-01-19T20:26:33.222Z,1.42
2023-01-19T20:29:03.117Z,1.36
2023-01-19T20:31:32.416Z,-0.33
2023-01-19T20:34:00.918Z,1.27
2023-01-19T20:36:29.061Z,1.39
2023-01-19T20:38:57.143Z,1.37
2023-01-19T20:41:26.062Z,1.36
2023-01-19T20:43:53.131Z,1.25
2023-01-19T20:46:19.775Z,1.33
2023-01-19T20:48:50.803Z,1.01
2023-01-19T20:51:18.836Z,0.26
2023-01-19T20:53:45.842Z,1.28
2023-01-19T20:56:14.626Z,1.28
2023-01-19T20:58:41.258Z,0.68
2023-01-19T21:01:13.887Z,0.86
2023-01-19T21:03:42.371Z,1.40
2023-01-19T21:06:09.925Z,1.45
2023-01-19T21:08:37.250Z,1.41
2023-01-19T21:11:04.803Z,-1.62
2023-01-19T21:13:31.719Z,1.30
2023-01-19T21:15:59.307Z,1.08
2023-01-19T21:18:27.874Z,1.36
2023-01-19T21:20:57.345Z,1.06
2023-01-19T21:23:25.490Z,1.19
2023-01-19T21:25:54.473Z,1.11
2023-01-19T21:28:22.782Z,1.13
2023-01-19T21:30:50.654Z,1.11
2023-01-19T21:33:17.987Z,0.97
2023-01-19T21:35:51.027Z,1.18
2023-01-19T21:38:17.884Z,1.14
2023-01-19T21:40:44.619Z,1.24
2023-01-19T21:43:13.437Z,1.25
2023-01-19T21:45:43.100Z,1.22
2023-01-19T21:48:10.166Z,1.20
2023-01-19T21:50:36.804Z,1.22
2023-01-19T21:53:05.896Z,1.06
2023-01-19T21:55:33.152Z,1.25
2023-01-19T21:57:59.817Z,1.21
2023-01-19T22:00:29.441Z,1.16
2023-01-19T22:03:04.299Z,1.21
2023-01-19T22:05:36.733Z,1.08
2023-01-19T22:08:04.972Z,-0.14
2023-01-19T22:10:32.046Z,0.87
2023-01-19T22:12:58.771Z,1.05
2023-01-19T22:15:25.331Z,0.95
2023-01-19T22:17:51.947Z,0.82
2023-01-19T22:20:18.729Z,-0.15
2023-01-19T22:22:45.364Z,-0.32
2023-01-19T22:25:12.403Z,0.78
2023-01-19T22:27:39.142Z,0.47
2023-01-19T22:30:06.365Z,0.31
2023-01-19T22:32:33.012Z,0.23
2023-01-19T22:34:59.558Z,0.57
2023-01-19T22:37:26.179Z,-0.16
2023-01-19T22:39:53.201Z,-0.17
2023-01-19T22:42:19.791Z,0.28
2023-01-19T22:44:46.883Z,-0.41
2023-01-19T22:47:14.200Z,0.40
2023-01-19T22:49:40.831Z,0.57
2023-01-19T22:52:07.704Z,0.53
2023-01-19T22:54:34.274Z,0.57
2023-01-19T22:57:00.979Z,0.56
2023-01-19T22:59:27.679Z,-0.78
2023-01-19T23:01:54.498Z,0.06
2023-01-19T23:04:21.146Z,0.28
2023-01-19T23:06:50.429Z,0.23
2023-01-19T23:09:18.216Z,0.14
2023-01-19T23:11:50.251Z,0.41
2023-01-19T23:14:20.491Z,-0.60
2023-01-19T23:16:48.046Z,-2.02
2023-01-19T23:19:16.922Z,-0.15
2023-01-19T23:21:44.128Z,0.12
2023-01-19T23:24:10.778Z,0.17
2023-01-19T23:26:38.400Z,-0.34
2023-01-19T23:29:08.057Z,-0.28
2023-01-19T23:31:36.714Z,-0.60
2023-01-19T23:34:09.291Z,-0.15
2023-01-19T23:36:38.329Z,-0.44
2023-01-19T23:39:11.486Z,-0.39
2023-01-19T23:41:38.171Z,-0.96
2023-01-19T23:44:05.014Z,-1.02
2023-01-19T23:46:32.020Z,-0.79
2023-01-19T23:48:58.602Z,-0.95
2023-01-19T23:51:27.882Z,-1.34
2023-01-19T23:53:55.773Z,-0.28
2023-01-19T23:56:25.545Z,-1.32
2023-01-19T23:58:55.365Z,0.21
